Time;durP1;ratioP1;P1;durP2;ratioP2;P2;SDS_P1;SDS_P2;PMS_P1;PMS_P2;Temp;Humidity;BMP_temperature;BMP_pressure;BME280_temperature;BME280_humidity;BME280_pressure;Samples;Min_cycle;Max_cycle;Signal;HPM_P1;HPM_P2
2020/12/23 00:00:43;;;;;;;8.40;1.70;;;;;;;;;;5040120;28;20263;-66
2020/12/23 00:03:09;;;;;;;5.80;1.52;;;;;;;;;;5040011;28;20270;-67
2020/12/23 00:05:34;;;;;;;5.72;1.38;;;;;;;;;;5040169;28;20286;-67
2020/12/23 00:07:59;;;;;;;7.95;2.00;;;;;;;;;;5040070;28;20874;-67
2020/12/23 00:10:25;;;;;;;7.35;2.22;;;;;;;;;;5039547;28;20199;-67
2020/12/23 00:12:50;;;;;;;8.98;2.15;;;;;;;;;;5040136;28;20271;-66
2020/12/23 00:15:15;;;;;;;7.95;1.92;;;;;;;;;;5039345;28;20219;-67
2020/12/23 00:17:41;;;;;;;8.63;1.80;;;;;;;;;;5039454;28;20195;-67
2020/12/23 00:20:06;;;;;;;7.30;2.00;;;;;;;;;;5021275;28;20226;-67
2020/12/23 00:22:31;;;;;;;5.00;1.67;;;;;;;;;;5039726;28;20194;-66
2020/12/23 00:24:57;;;;;;;6.60;1.42;;;;;;;;;;5020128;28;20218;-67
2020/12/23 00:27:22;;;;;;;8.00;1.92;;;;;;;;;;5020115;28;20191;-67
2020/12/23 00:29:49;;;;;;;7.80;1.50;;;;;;;;;;5021122;28;20191;-67
2020/12/23 00:32:17;;;;;;;7.53;1.50;;;;;;;;;;5039049;28;20382;-66
2020/12/23 00:34:43;;;;;;;7.95;1.50;;;;;;;;;;5039482;28;20310;-67
2020/12/23 00:37:08;;;;;;;5.80;1.80;;;;;;;;;;5021247;28;20214;-67
2020/12/23 00:39:33;;;;;;;7.40;1.83;;;;;;;;;;5038819;28;20265;-67
2020/12/23 00:41:59;;;;;;;10.25;1.50;;;;;;;;;;5038993;28;20912;-67
2020/12/23 00:44:24;;;;;;;4.85;1.70;;;;;;;;;;5021270;28;20212;-67
2020/12/23 00:46:51;;;;;;;6.18;1.73;;;;;;;;;;5038861;28;20237;-67
2020/12/23 00:49:16;;;;;;;7.25;1.85;;;;;;;;;;5020992;28;20183;-67
2020/12/23 00:51:41;;;;;;;6.38;1.55;;;;;;;;;;5020796;28;20875;-66
2020/12/23 00:54:07;;;;;;;8.25;1.88;;;;;;;;;;5019767;28;20329;-67
2020/12/23 00:56:37;;;;;;;6.05;1.58;;;;;;;;;;5020706;28;20830;-67
2020/12/23 00:59:02;;;;;;;8.75;1.90;;;;;;;;;;5038964;28;20244;-67
2020/12/23 01:01:27;;;;;;;4.47;1.70;;;;;;;;;;5038561;28;20179;-67
2020/12/23 01:03:53;;;;;;;7.57;1.90;;;;;;;;;;5038278;28;20196;-67
2020/12/23 01:06:18;;;;;;;10.13;2.08;;;;;;;;;;5038263;28;20819;-67
2020/12/23 01:08:43;;;;;;;7.75;1.92;;;;;;;;;;5038225;28;20787;-68
2020/12/23 01:11:10;;;;;;;7.63;1.60;;;;;;;;;;5037185;28;20184;-68
2020/12/23 01:13:35;;;;;;;6.78;1.75;;;;;;;;;;5019985;28;20301;-67
2020/12/23 01:16:01;;;;;;;6.97;1.45;;;;;;;;;;5038297;28;20579;-67
2020/12/23 01:18:26;;;;;;;6.28;1.33;;;;;;;;;;5037617;28;20225;-67
2020/12/23 01:20:52;;;;;;;7.82;1.50;;;;;;;;;;5038407;28;20183;-67
2020/12/23 01:23:17;;;;;;;7.00;1.40;;;;;;;;;;5020073;28;20215;-67
2020/12/23 01:25:42;;;;;;;5.28;1.30;;;;;;;;;;5037421;28;20295;-67
2020/12/23 01:28:08;;;;;;;5.63;1.40;;;;;;;;;;5038455;28;20187;-67
2020/12/23 01:30:33;;;;;;;8.57;1.85;;;;;;;;;;5020183;28;20940;-67
2020/12/23 01:32:58;;;;;;;5.95;1.80;;;;;;;;;;5037896;28;20195;-67
2020/12/23 01:35:23;;;;;;;8.63;1.63;;;;;;;;;;5020189;28;20204;-66
2020/12/23 01:37:49;;;;;;;5.28;1.63;;;;;;;;;;5036540;28;20748;-69
2020/12/23 01:40:14;;;;;;;4.85;1.60;;;;;;;;;;5019665;28;20181;-68
2020/12/23 01:42:40;;;;;;;12.73;1.83;;;;;;;;;;5037821;28;20261;-68
2020/12/23 01:45:05;;;;;;;9.52;2.05;;;;;;;;;;5037826;28;20838;-68
2020/12/23 01:47:31;;;;;;;7.00;1.92;;;;;;;;;;5037346;28;20188;-68
2020/12/23 01:49:57;;;;;;;12.73;2.20;;;;;;;;;;5038322;28;20255;-68
2020/12/23 01:52:22;;;;;;;7.63;1.70;;;;;;;;;;5037709;28;20190;-68
2020/12/23 01:54:48;;;;;;;10.45;1.98;;;;;;;;;;5035369;28;21034;-69
2020/12/23 01:57:13;;;;;;;9.27;2.10;;;;;;;;;;5037298;28;20211;-68
2020/12/23 01:59:39;;;;;;;7.22;1.90;;;;;;;;;;5037385;28;20195;-68
2020/12/23 02:02:24;;;;;;;7.57;1.92;;;;;;;;;;5036901;28;20180;-68
2020/12/23 02:04:50;;;;;;;6.93;1.90;;;;;;;;;;5031830;28;20306;-68
2020/12/23 02:07:16;;;;;;;11.18;2.45;;;;;;;;;;5038136;28;20182;-68
2020/12/23 02:09:42;;;;;;;5.97;1.90;;;;;;;;;;5041127;28;20195;-68
2020/12/23 02:12:07;;;;;;;12.05;1.90;;;;;;;;;;5039969;28;20249;-68
2020/12/23 02:14:32;;;;;;;10.00;2.08;;;;;;;;;;5041372;28;20253;-68
2020/12/23 02:16:58;;;;;;;12.07;2.58;;;;;;;;;;5040870;28;20223;-68
2020/12/23 02:19:23;;;;;;;8.48;2.08;;;;;;;;;;5023527;28;20252;-68
2020/12/23 02:21:48;;;;;;;10.15;2.10;;;;;;;;;;5040594;28;20183;-69
2020/12/23 02:24:14;;;;;;;8.95;1.95;;;;;;;;;;5040944;28;20729;-69
2020/12/23 02:26:39;;;;;;;13.80;2.65;;;;;;;;;;5040970;28;20171;-68
2020/12/23 02:29:04;;;;;;;12.73;2.50;;;;;;;;;;5041376;28;20382;-69
2020/12/23 02:31:30;;;;;;;19.98;2.70;;;;;;;;;;5023075;28;20183;-68
2020/12/23 02:33:55;;;;;;;11.45;2.30;;;;;;;;;;5041039;28;20202;-69
2020/12/23 02:36:20;;;;;;;9.05;2.20;;;;;;;;;;5040873;28;20246;-68
2020/12/23 02:38:46;;;;;;;9.30;1.70;;;;;;;;;;5040418;28;20206;-68
2020/12/23 02:41:11;;;;;;;11.03;2.07;;;;;;;;;;5023141;28;20206;-68
2020/12/23 02:43:36;;;;;;;8.48;2.55;;;;;;;;;;5040635;28;20191;-68
2020/12/23 02:46:01;;;;;;;10.93;2.47;;;;;;;;;;5040383;28;20202;-68
2020/12/23 02:48:27;;;;;;;12.10;2.30;;;;;;;;;;5022944;28;20571;-68
2020/12/23 02:50:52;;;;;;;37.75;3.75;;;;;;;;;;5040625;28;20201;-68
2020/12/23 02:53:17;;;;;;;9.50;2.33;;;;;;;;;;5040164;28;20179;-68
2020/12/23 02:55:43;;;;;;;8.43;2.75;;;;;;;;;;5040375;28;20207;-69
2020/12/23 02:58:08;;;;;;;10.93;2.57;;;;;;;;;;5041094;28;21005;-68
2020/12/23 03:00:33;;;;;;;17.50;3.15;;;;;;;;;;5022265;28;20191;-68
2020/12/23 03:02:59;;;;;;;13.32;3.38;;;;;;;;;;5022777;28;20187;-68
2020/12/23 03:05:24;;;;;;;13.70;3.30;;;;;;;;;;5040060;28;20203;-68
2020/12/23 03:07:49;;;;;;;9.85;3.40;;;;;;;;;;5033339;28;20963;-68
2020/12/23 03:10:15;;;;;;;14.70;3.22;;;;;;;;;;5039138;28;20179;-68
2020/12/23 03:12:40;;;;;;;9.05;2.45;;;;;;;;;;5040341;28;20630;-68
2020/12/23 03:15:05;;;;;;;15.18;3.00;;;;;;;;;;5039607;28;20790;-68
2020/12/23 03:17:31;;;;;;;8.80;2.20;;;;;;;;;;5039154;28;20198;-68
2020/12/23 03:19:56;;;;;;;11.75;2.40;;;;;;;;;;5040333;28;20202;-68
2020/12/23 03:22:21;;;;;;;6.57;2.17;;;;;;;;;;5039558;28;20191;-68
2020/12/23 03:24:47;;;;;;;8.45;1.85;;;;;;;;;;5040323;28;20215;-68
2020/12/23 03:27:12;;;;;;;9.90;2.45;;;;;;;;;;5040071;28;20198;-68
2020/12/23 03:29:37;;;;;;;11.02;2.20;;;;;;;;;;5021540;28;20845;-68
2020/12/23 03:32:02;;;;;;;9.57;1.85;;;;;;;;;;5040594;28;20879;-68
2020/12/23 03:34:28;;;;;;;5.90;2.17;;;;;;;;;;5039530;28;20215;-68
2020/12/23 03:36:53;;;;;;;16.52;3.63;;;;;;;;;;5039758;28;20214;-68
2020/12/23 03:39:18;;;;;;;14.88;2.08;;;;;;;;;;5039438;28;20233;-68
2020/12/23 03:41:44;;;;;;;11.82;2.40;;;;;;;;;;5040334;28;20195;-68
2020/12/23 03:44:09;;;;;;;13.33;1.97;;;;;;;;;;5040006;28;20222;-68
2020/12/23 03:46:34;;;;;;;8.73;1.87;;;;;;;;;;5020265;28;20942;-68
2020/12/23 03:49:00;;;;;;;10.60;2.30;;;;;;;;;;5039418;28;20292;-68
2020/12/23 03:51:25;;;;;;;11.17;2.50;;;;;;;;;;5039820;28;20187;-68
2020/12/23 03:53:50;;;;;;;9.45;1.95;;;;;;;;;;5045280;28;20193;-68
2020/12/23 03:56:15;;;;;;;12.77;2.23;;;;;;;;;;5036760;28;20203;-68
2020/12/23 03:58:41;;;;;;;8.30;2.23;;;;;;;;;;5040343;28;20183;-69
2020/12/23 04:01:06;;;;;;;11.83;2.30;;;;;;;;;;5034231;28;20912;-68
2020/12/23 04:03:31;;;;;;;9.00;2.00;;;;;;;;;;5039423;28;20186;-68
2020/12/23 04:05:57;;;;;;;10.60;2.30;;;;;;;;;;5039500;28;20319;-68
2020/12/23 04:08:22;;;;;;;12.15;2.38;;;;;;;;;;5021454;28;20274;-68
2020/12/23 04:10:47;;;;;;;10.90;2.47;;;;;;;;;;5022211;28;20191;-68
2020/12/23 04:13:13;;;;;;;10.27;2.90;;;;;;;;;;5040336;28;20182;-68
2020/12/23 04:15:38;;;;;;;14.40;2.37;;;;;;;;;;5021098;28;20310;-68
2020/12/23 04:18:03;;;;;;;8.73;2.00;;;;;;;;;;5039864;28;20206;-68
2020/12/23 04:20:28;;;;;;;15.47;2.60;;;;;;;;;;5039912;28;20370;-68
2020/12/23 04:22:54;;;;;;;10.53;2.47;;;;;;;;;;5039745;28;20202;-68
2020/12/23 04:25:19;;;;;;;7.87;1.90;;;;;;;;;;5004917;28;20221;-68
2020/12/23 04:27:45;;;;;;;7.37;2.10;;;;;;;;;;5039790;28;20183;-68
2020/12/23 04:30:10;;;;;;;8.43;2.15;;;;;;;;;;5039279;28;20741;-68
2020/12/23 04:32:36;;;;;;;12.57;2.67;;;;;;;;;;5039598;28;20192;-69
2020/12/23 04:35:03;;;;;;;9.57;1.97;;;;;;;;;;5038872;28;20733;-68
2020/12/23 04:37:29;;;;;;;9.50;1.70;;;;;;;;;;5038901;28;20210;-69
2020/12/23 04:39:55;;;;;;;8.20;1.57;;;;;;;;;;5043813;28;20195;-68
2020/12/23 04:42:20;;;;;;;9.23;1.90;;;;;;;;;;5037339;28;20202;-68
2020/12/23 04:44:46;;;;;;;12.60;2.33;;;;;;;;;;5038946;28;20204;-68
2020/12/23 04:47:14;;;;;;;7.43;1.70;;;;;;;;;;5004127;28;20195;-67
2020/12/23 04:49:42;;;;;;;13.80;2.13;;;;;;;;;;5039177;28;20199;-67
2020/12/23 04:52:07;;;;;;;6.65;1.63;;;;;;;;;;5038663;28;20643;-68
2020/12/23 04:54:33;;;;;;;8.75;1.65;;;;;;;;;;5039075;28;20219;-67
2020/12/23 04:56:59;;;;;;;14.60;2.33;;;;;;;;;;5031868;28;20792;-68
2020/12/23 04:59:25;;;;;;;10.93;1.97;;;;;;;;;;5038532;28;20181;-70
2020/12/23 05:01:50;;;;;;;6.13;1.57;;;;;;;;;;5039302;28;20189;-67
2020/12/23 05:04:16;;;;;;;10.70;1.93;;;;;;;;;;5038524;28;20694;-68
2020/12/23 05:06:41;;;;;;;11.17;1.97;;;;;;;;;;5038506;28;20179;-68
2020/12/23 05:09:06;;;;;;;7.80;1.90;;;;;;;;;;5020610;28;20217;-64
2020/12/23 05:11:35;;;;;;;13.73;2.85;;;;;;;;;;5039147;28;20191;-69
2020/12/23 05:14:04;;;;;;;10.13;2.27;;;;;;;;;;5038226;28;20442;-64
2020/12/23 05:16:30;;;;;;;9.23;2.57;;;;;;;;;;5045760;28;20208;-64
2020/12/23 05:18:57;;;;;;;9.83;2.60;;;;;;;;;;5038285;28;20176;-64
2020/12/23 05:21:22;;;;;;;11.60;2.53;;;;;;;;;;5038029;28;20181;-63
2020/12/23 05:23:48;;;;;;;9.67;2.53;;;;;;;;;;5037752;28;20715;-64
2020/12/23 05:26:14;;;;;;;12.20;2.30;;;;;;;;;;5037639;28;20766;-67
2020/12/23 05:28:40;;;;;;;15.50;3.23;;;;;;;;;;5037885;28;20193;-64
2020/12/23 05:31:06;;;;;;;8.83;1.93;;;;;;;;;;5038197;28;20189;-69
2020/12/23 05:33:33;;;;;;;11.40;2.20;;;;;;;;;;5038775;28;20193;-66
2020/12/23 05:35:59;;;;;;;6.87;1.67;;;;;;;;;;5037897;28;20208;-66
2020/12/23 05:38:26;;;;;;;11.43;2.10;;;;;;;;;;5038435;28;20210;-66
2020/12/23 05:40:51;;;;;;;7.27;2.07;;;;;;;;;;5038208;28;20197;-66
2020/12/23 05:43:17;;;;;;;10.67;1.87;;;;;;;;;;5038512;28;21073;-66
2020/12/23 05:45:42;;;;;;;12.13;2.53;;;;;;;;;;5038661;28;20762;-70
2020/12/23 05:48:16;;;;;;;9.93;1.60;;;;;;;;;;5038225;28;20188;-70
2020/12/23 05:50:42;;;;;;;10.97;1.80;;;;;;;;;;5038385;28;20204;-69
2020/12/23 05:53:12;;;;;;;12.47;2.03;;;;;;;;;;5038647;28;20196;-70
2020/12/23 05:55:42;;;;;;;14.27;2.00;;;;;;;;;;5036472;28;20352;-69
2020/12/23 05:58:07;;;;;;;6.17;1.57;;;;;;;;;;5037625;28;20207;-69
2020/12/23 06:00:33;;;;;;;10.20;2.43;;;;;;;;;;5038367;28;20194;-69
2020/12/23 06:03:04;;;;;;;11.07;1.90;;;;;;;;;;5038499;28;20181;-68
2020/12/23 06:05:32;;;;;;;16.63;2.90;;;;;;;;;;5038026;28;20274;-69
2020/12/23 06:08:02;;;;;;;10.23;2.75;;;;;;;;;;5020471;28;20244;-69
2020/12/23 06:10:32;;;;;;;12.32;2.70;;;;;;;;;;5038549;28;20205;-69
2020/12/23 06:13:07;;;;;;;10.73;2.92;;;;;;;;;;5038119;28;20191;-69
2020/12/23 06:15:33;;;;;;;10.23;2.43;;;;;;;;;;5036161;28;20603;-69
2020/12/23 06:18:01;;;;;;;9.77;2.72;;;;;;;;;;5040823;28;20204;-69
2020/12/23 06:20:29;;;;;;;18.77;3.20;;;;;;;;;;5048881;28;20186;-70
2020/12/23 06:22:54;;;;;;;13.13;2.50;;;;;;;;;;5040172;28;20178;-70
2020/12/23 06:25:22;;;;;;;13.63;3.28;;;;;;;;;;5041900;28;20218;-70
2020/12/23 06:27:51;;;;;;;14.73;3.37;;;;;;;;;;5055822;28;20656;-71
2020/12/23 06:30:18;;;;;;;14.23;2.80;;;;;;;;;;5031637;28;20197;-69
2020/12/23 06:32:43;;;;;;;15.40;3.37;;;;;;;;;;5050763;28;20194;-68
2020/12/23 06:35:08;;;;;;;16.25;3.42;;;;;;;;;;5043135;28;20223;-73
2020/12/23 06:37:34;;;;;;;18.17;3.97;;;;;;;;;;5052600;28;20264;-69
2020/12/23 06:40:06;;;;;;;16.03;3.47;;;;;;;;;;5050999;28;20748;-67
2020/12/23 06:42:31;;;;;;;17.80;3.57;;;;;;;;;;5046671;28;20179;-70
2020/12/23 06:44:58;;;;;;;17.00;3.03;;;;;;;;;;5039419;28;20210;-70
2020/12/23 06:47:24;;;;;;;12.75;3.22;;;;;;;;;;5048705;28;20193;-70
2020/12/23 06:49:51;;;;;;;16.58;3.75;;;;;;;;;;5039335;28;20191;-77
2020/12/23 06:52:29;;;;;;;16.25;3.78;;;;;;;;;;5036598;28;20195;-70
2020/12/23 06:55:02;;;;;;;14.38;3.72;;;;;;;;;;5059545;28;20214;-77
2020/12/23 06:57:36;;;;;;;23.00;4.77;;;;;;;;;;5056917;28;20573;-70
2020/12/23 07:00:20;;;;;;;19.02;5.13;;;;;;;;;;5055405;28;20957;-70
2020/12/23 07:02:49;;;;;;;15.48;4.53;;;;;;;;;;5056763;28;20176;-67
2020/12/23 07:05:31;;;;;;;11.88;3.97;;;;;;;;;;5040267;28;20284;-68
2020/12/23 07:07:57;;;;;;;20.83;4.40;;;;;;;;;;5045525;28;20625;-68
2020/12/23 07:10:23;;;;;;;19.02;4.32;;;;;;;;;;5058649;28;20193;-68
2020/12/23 07:12:53;;;;;;;21.65;4.00;;;;;;;;;;5052537;28;20182;-68
2020/12/23 07:15:19;;;;;;;14.20;4.35;;;;;;;;;;5052582;28;20219;-75
2020/12/23 07:17:45;;;;;;;17.35;4.18;;;;;;;;;;5059037;28;20259;-70
2020/12/23 07:20:12;;;;;;;21.75;4.18;;;;;;;;;;5059946;28;20218;-70
2020/12/23 07:22:37;;;;;;;17.40;4.10;;;;;;;;;;5056837;28;20556;-68
2020/12/23 07:25:03;;;;;;;13.93;3.95;;;;;;;;;;5029548;28;20222;-67
2020/12/23 07:27:28;;;;;;;15.77;4.60;;;;;;;;;;5058016;28;20220;-66
2020/12/23 07:30:04;;;;;;;16.55;4.38;;;;;;;;;;5033865;28;20187;-66
2020/12/23 07:32:29;;;;;;;14.55;4.32;;;;;;;;;;5045299;28;20183;-65
2020/12/23 07:34:54;;;;;;;22.67;4.93;;;;;;;;;;5049227;28;20203;-66
2020/12/23 07:37:20;;;;;;;17.80;4.30;;;;;;;;;;5057694;28;20724;-69
2020/12/23 07:39:48;;;;;;;22.05;4.60;;;;;;;;;;5057636;28;20279;-66
2020/12/23 07:42:20;;;;;;;15.57;4.55;;;;;;;;;;5047974;28;20190;-70
2020/12/23 07:44:52;;;;;;;21.38;5.35;;;;;;;;;;5058821;28;20564;-69
2020/12/23 07:47:21;;;;;;;22.95;5.43;;;;;;;;;;5053551;28;20352;-70
2020/12/23 07:49:56;;;;;;;17.80;5.55;;;;;;;;;;5051524;28;20220;-70
2020/12/23 07:52:22;;;;;;;16.70;4.78;;;;;;;;;;5057945;28;20190;-71
2020/12/23 07:54:47;;;;;;;18.45;5.18;;;;;;;;;;5046600;28;20194;-68
2020/12/23 07:57:25;;;;;;;20.98;5.28;;;;;;;;;;5059151;28;20333;-70
2020/12/23 07:59:51;;;;;;;18.45;4.65;;;;;;;;;;5053619;28;20690;-70
2020/12/23 08:02:16;;;;;;;24.60;4.72;;;;;;;;;;5059343;28;20190;-70
2020/12/23 08:04:41;;;;;;;16.35;4.68;;;;;;;;;;5036587;28;20214;-71
2020/12/23 08:07:07;;;;;;;18.77;4.18;;;;;;;;;;5037584;28;20246;-69
2020/12/23 08:09:32;;;;;;;13.95;4.15;;;;;;;;;;5051921;28;20855;-70
2020/12/23 08:11:58;;;;;;;16.63;3.95;;;;;;;;;;5059131;28;20183;-70
2020/12/23 08:14:23;;;;;;;12.65;3.92;;;;;;;;;;5058054;28;20222;-70
2020/12/23 08:16:56;;;;;;;19.67;5.65;;;;;;;;;;5052661;28;21128;-70
2020/12/23 08:19:22;;;;;;;20.52;5.45;;;;;;;;;;5057895;28;20641;-71
2020/12/23 08:21:47;;;;;;;20.38;7.68;;;;;;;;;;5038035;28;20241;-70
2020/12/23 08:24:15;;;;;;;23.02;9.85;;;;;;;;;;5023709;28;20218;-70
2020/12/23 08:26:40;;;;;;;24.70;10.10;;;;;;;;;;5057446;28;20187;-70
2020/12/23 08:29:06;;;;;;;23.42;11.38;;;;;;;;;;5058368;28;20194;-69
2020/12/23 08:31:32;;;;;;;21.95;8.95;;;;;;;;;;5055810;28;20187;-73
2020/12/23 08:33:59;;;;;;;22.33;7.05;;;;;;;;;;5050691;28;20179;-70
2020/12/23 08:36:25;;;;;;;18.33;5.32;;;;;;;;;;5057896;28;20268;-70
2020/12/23 08:38:52;;;;;;;11.18;4.10;;;;;;;;;;5059837;28;20652;-70
2020/12/23 08:41:18;;;;;;;20.63;4.80;;;;;;;;;;5052163;28;20199;-70
2020/12/23 08:43:47;;;;;;;19.02;5.55;;;;;;;;;;5051380;28;21022;-70
2020/12/23 08:46:19;;;;;;;16.80;4.47;;;;;;;;;;5040801;28;20211;-70
2020/12/23 08:48:45;;;;;;;21.13;4.63;;;;;;;;;;5052612;28;20187;-70
2020/12/23 08:51:11;;;;;;;16.15;4.38;;;;;;;;;;5058095;28;20222;-70
2020/12/23 08:53:37;;;;;;;19.15;4.75;;;;;;;;;;5015522;28;20281;-70
2020/12/23 08:56:22;;;;;;;18.00;4.13;;;;;;;;;;5057487;28;20207;-68
2020/12/23 08:58:49;;;;;;;20.17;5.72;;;;;;;;;;5057624;28;20183;-70
2020/12/23 09:01:20;;;;;;;25.65;4.93;;;;;;;;;;5024572;28;20850;-70
2020/12/23 09:03:55;;;;;;;17.65;5.20;;;;;;;;;;5058224;28;20186;-70
2020/12/23 09:06:21;;;;;;;20.10;5.15;;;;;;;;;;5046482;28;21053;-70
2020/12/23 09:08:46;;;;;;;17.25;5.32;;;;;;;;;;5059501;28;20225;-70
2020/12/23 09:11:11;;;;;;;22.77;8.38;;;;;;;;;;5054723;28;20182;-72
2020/12/23 09:13:36;;;;;;;19.00;5.15;;;;;;;;;;5052224;28;20546;-70
2020/12/23 09:16:02;;;;;;;19.55;6.15;;;;;;;;;;5048810;28;20272;-70
2020/12/23 09:18:27;;;;;;;24.00;7.63;;;;;;;;;;5052145;28;20202;-67
2020/12/23 09:20:56;;;;;;;20.20;6.03;;;;;;;;;;5057723;28;20179;-70
2020/12/23 09:23:21;;;;;;;20.38;5.55;;;;;;;;;;5024754;28;20179;-70
2020/12/23 09:25:47;;;;;;;17.95;5.32;;;;;;;;;;5051527;28;20210;-70
2020/12/23 09:28:13;;;;;;;18.58;4.70;;;;;;;;;;5058916;28;20240;-71
2020/12/23 09:30:42;;;;;;;21.05;5.07;;;;;;;;;;5055661;28;20243;-68
2020/12/23 09:33:12;;;;;;;18.60;4.57;;;;;;;;;;5058760;28;20191;-67
2020/12/23 09:35:38;;;;;;;21.83;4.90;;;;;;;;;;5032018;28;20211;-66
2020/12/23 09:38:14;;;;;;;13.52;4.07;;;;;;;;;;5057422;28;20297;-67
2020/12/23 09:40:41;;;;;;;19.27;4.53;;;;;;;;;;5054197;28;20252;-67
2020/12/23 09:43:19;;;;;;;16.42;4.18;;;;;;;;;;5058968;28;20193;-67
2020/12/23 09:45:45;;;;;;;15.73;4.65;;;;;;;;;;5054324;28;20704;-69
2020/12/23 09:48:11;;;;;;;13.48;4.63;;;;;;;;;;5056874;28;20171;-69
2020/12/23 09:50:36;;;;;;;14.90;4.47;;;;;;;;;;5048739;28;20643;-69
2020/12/23 09:53:02;;;;;;;19.60;5.88;;;;;;;;;;5035755;28;20224;-69
2020/12/23 09:55:27;;;;;;;18.30;7.28;;;;;;;;;;5049731;28;20259;-69
2020/12/23 09:57:53;;;;;;;15.60;5.75;;;;;;;;;;5056714;28;20202;-69
2020/12/23 10:00:19;;;;;;;18.52;4.55;;;;;;;;;;5065893;28;20286;-69
2020/12/23 10:02:44;;;;;;;17.02;4.72;;;;;;;;;;5033748;28;20214;-69
2020/12/23 10:05:10;;;;;;;9.30;4.47;;;;;;;;;;5058760;28;20237;-70
2020/12/23 10:07:35;;;;;;;19.90;5.80;;;;;;;;;;5050582;28;20274;-70
2020/12/23 10:10:00;;;;;;;21.02;5.68;;;;;;;;;;5056931;28;20187;-65
2020/12/23 10:12:25;;;;;;;19.50;5.43;;;;;;;;;;5053333;28;20238;-73
2020/12/23 10:23:42;;;;;;;4.97;1.73;;;;;;;;;;5023876;28;20381;-60
2020/12/23 10:26:07;;;;;;;11.85;2.40;;;;;;;;;;5026831;28;20052;-63
2020/12/23 10:48:44;;;;;;;13.05;3.28;;;12.90;62.80;;;;;;5051123;28;20361;-59
2020/12/23 10:51:10;;;;;;;14.60;3.13;;;11.90;67.20;;;;;;5027604;28;20887;-63
2020/12/23 10:53:36;;;;;;;14.95;3.50;;;11.60;71.20;;;;;;5034156;28;20029;-59
2020/12/23 10:56:02;;;;;;;18.60;4.30;;;11.50;69.40;;;;;;5024102;28;20816;-58
2020/12/23 10:58:28;;;;;;;10.57;2.97;;;11.40;69.90;;;;;;5028472;28;20127;-58
2020/12/23 11:00:54;;;;;;;14.68;4.00;;;11.20;70.40;;;;;;5020076;28;20037;-59
2020/12/23 11:03:20;;;;;;;12.48;3.50;;;11.00;71.20;;;;;;5028343;28;20033;-59
2020/12/23 11:05:45;;;;;;;12.15;3.58;;;10.90;72.40;;;;;;5028677;28;20099;-59
2020/12/23 11:08:11;;;;;;;16.27;3.35;;;10.70;73.00;;;;;;5026797;28;20060;-59
2020/12/23 11:10:37;;;;;;;17.85;3.20;;;10.50;74.30;;;;;;4977394;28;78431;-59
2020/12/23 11:13:03;;;;;;;16.67;4.75;;;10.40;74.10;;;;;;4976539;28;20110;-59
2020/12/23 11:15:29;;;;;;;8.55;3.42;;;10.30;75.30;;;;;;4975938;28;20498;-59
2020/12/23 11:17:55;;;;;;;15.30;3.83;;;10.20;76.10;;;;;;4975858;28;20035;-63
2020/12/23 11:20:21;;;;;;;12.50;3.40;;;10.30;77.30;;;;;;4969520;28;20035;-64
2020/12/23 11:22:47;;;;;;;14.10;4.10;;;10.30;76.10;;;;;;4981390;28;20221;-64
2020/12/23 11:25:13;;;;;;;12.65;3.72;;;10.30;75.80;;;;;;4972012;28;20054;-63
2020/12/23 11:27:38;;;;;;;11.02;3.90;;;10.20;75.90;;;;;;4966925;28;20046;-64
2020/12/23 11:30:05;;;;;;;16.63;3.45;;;10.10;76.50;;;;;;4965964;28;20039;-64
2020/12/23 11:32:30;;;;;;;16.00;4.10;;;10.10;76.90;;;;;;4974457;28;20041;-64
2020/12/23 11:34:56;;;;;;;18.67;3.88;;;10.10;77.60;;;;;;4968215;28;20042;-64
2020/12/23 11:37:22;;;;;;;12.60;3.47;;;10.10;77.50;;;;;;4975385;28;20129;-69
2020/12/23 11:39:47;;;;;;;19.20;4.18;;;10.00;77.60;;;;;;4974588;28;20050;-62
2020/12/23 11:42:14;;;;;;;15.55;4.18;;;9.90;78.30;;;;;;4974050;28;20747;-65
2020/12/23 11:44:40;;;;;;;18.45;3.70;;;9.90;78.70;;;;;;4975114;28;20042;-66
2020/12/23 11:47:06;;;;;;;21.40;3.55;;;9.90;78.90;;;;;;4973364;28;20045;-65
2020/12/23 11:49:31;;;;;;;22.02;4.65;;;9.90;78.70;;;;;;4974673;28;20054;-66
2020/12/23 11:51:57;;;;;;;17.73;3.92;;;9.90;78.40;;;;;;4974704;28;20049;-64
2020/12/23 11:54:23;;;;;;;22.85;4.32;;;9.90;79.00;;;;;;4960483;28;20057;-63
2020/12/23 11:56:50;;;;;;;21.80;3.20;;;9.90;78.90;;;;;;4966782;28;20034;-64
2020/12/23 11:59:16;;;;;;;11.68;3.58;;;9.90;78.40;;;;;;4965838;28;20073;-66
2020/12/23 12:01:42;;;;;;;11.43;3.67;;;9.80;79.40;;;;;;4961978;28;20133;-69
2020/12/23 12:04:09;;;;;;;11.40;3.22;;;9.80;79.60;;;;;;4961969;28;20058;-64
2020/12/23 12:06:35;;;;;;;11.88;3.25;;;9.90;79.90;;;;;;4962451;28;20043;-65
2020/12/23 12:09:01;;;;;;;18.80;3.25;;;9.90;79.60;;;;;;4956445;28;20510;-64
2020/12/23 12:11:26;;;;;;;13.70;3.20;;;10.00;78.40;;;;;;4963329;28;20041;-64
2020/12/23 12:13:52;;;;;;;15.73;3.42;;;9.90;78.90;;;;;;4967815;28;20828;-65
2020/12/23 12:16:18;;;;;;;19.63;3.80;;;10.00;78.60;;;;;;4968377;28;20103;-65
2020/12/23 12:18:44;;;;;;;16.58;3.35;;;9.90;78.70;;;;;;4967990;28;20038;-64
2020/12/23 12:21:09;;;;;;;15.30;4.20;;;10.00;78.90;;;;;;4962280;28;20035;-65
2020/12/23 12:23:35;;;;;;;15.75;3.05;;;10.00;78.80;;;;;;4954601;28;20097;-66
2020/12/23 12:26:01;;;;;;;18.48;4.55;;;10.20;78.70;;;;;;4961064;28;20077;-65
2020/12/23 12:28:26;;;;;;;11.93;3.13;;;10.30;78.10;;;;;;4960688;28;20191;-65
2020/12/23 12:30:52;;;;;;;15.18;3.35;;;10.40;77.90;;;;;;4960974;28;20480;-65
2020/12/23 12:33:18;;;;;;;14.32;3.75;;;10.40;77.60;;;;;;4961193;28;20038;-68
2020/12/23 12:35:44;;;;;;;15.27;2.88;;;10.40;77.70;;;;;;4949861;28;20031;-63
2020/12/23 12:38:10;;;;;;;16.88;4.00;;;10.40;78.10;;;;;;4949579;28;20118;-63
2020/12/23 12:40:37;;;;;;;11.77;3.08;;;10.40;78.00;;;;;;4961569;28;20046;-64
2020/12/23 12:43:03;;;;;;;15.25;3.55;;;10.30;78.10;;;;;;4962353;28;20697;-64
2020/12/23 12:45:33;;;;;;;17.27;4.63;;;10.30;79.00;;;;;;4961221;28;20088;-64
2020/12/23 12:47:59;;;;;;;17.77;3.50;;;10.10;78.70;;;;;;4961816;28;20092;-66
2020/12/23 12:50:25;;;;;;;13.38;3.53;;;10.00;79.90;;;;;;4962440;28;20035;-65
2020/12/23 12:52:50;;;;;;;22.77;3.97;;;10.00;80.80;;;;;;4953719;28;20033;-64
2020/12/23 12:55:16;;;;;;;14.95;3.47;;;10.00;81.00;;;;;;4955266;28;20035;-66
2020/12/23 12:57:43;;;;;;;16.88;3.40;;;10.00;81.10;;;;;;4954908;28;20034;-65
2020/12/23 13:00:10;;;;;;;15.32;3.35;;;10.00;81.30;;;;;;4961017;28;20447;-65
2020/12/23 13:02:36;;;;;;;9.95;3.45;;;10.10;81.30;;;;;;4959967;28;20034;-65
2020/12/23 13:05:05;;;;;;;17.52;3.53;;;10.10;81.20;;;;;;4961912;28;20038;-66
2020/12/23 13:07:32;;;;;;;24.90;4.68;;;10.10;81.10;;;;;;4960957;28;20090;-65
2020/12/23 13:09:58;;;;;;;15.07;3.70;;;10.10;81.20;;;;;;4961753;28;20035;-65
2020/12/23 13:12:24;;;;;;;14.57;4.40;;;10.10;81.40;;;;;;4961754;28;20039;-64
2020/12/23 13:14:49;;;;;;;19.55;4.68;;;10.10;81.50;;;;;;4953134;28;20786;-65
2020/12/23 13:17:16;;;;;;;19.33;3.47;;;10.00;81.80;;;;;;4961396;28;20049;-64
2020/12/23 13:19:41;;;;;;;12.65;3.55;;;10.00;81.70;;;;;;4984408;28;20502;-64
2020/12/23 13:22:07;;;;;;;14.30;3.53;;;10.00;82.10;;;;;;4958659;28;20030;-64
2020/12/23 13:24:32;;;;;;;20.15;3.90;;;10.00;82.20;;;;;;4952752;28;20105;-64
2020/12/23 13:26:58;;;;;;;21.88;3.92;;;10.10;82.30;;;;;;4960420;28;20123;-64
2020/12/23 13:29:24;;;;;;;18.30;4.70;;;10.10;82.00;;;;;;4959143;28;20039;-64
2020/12/23 13:31:50;;;;;;;12.35;4.00;;;10.10;82.00;;;;;;4961345;28;20058;-64
2020/12/23 13:34:18;;;;;;;19.63;4.55;;;10.00;82.30;;;;;;4979605;28;20046;-64
2020/12/23 13:36:44;;;;;;;15.77;4.40;;;10.00;82.70;;;;;;4998058;28;20038;-65
2020/12/23 13:39:10;;;;;;;17.05;5.13;;;9.90;82.80;;;;;;4984313;28;20038;-63
2020/12/23 13:41:36;;;;;;;24.67;4.85;;;10.00;83.20;;;;;;4998052;28;20042;-65
2020/12/23 13:44:02;;;;;;;18.65;4.75;;;9.90;82.90;;;;;;4992392;28;20037;-65
2020/12/23 13:46:28;;;;;;;13.25;4.20;;;9.80;83.50;;;;;;4990767;28;20046;-67
2020/12/23 13:48:55;;;;;;;20.98;4.75;;;9.80;83.70;;;;;;4998613;28;20049;-65
2020/12/23 13:51:21;;;;;;;17.63;4.40;;;9.90;83.40;;;;;;4990456;28;20076;-66
2020/12/23 13:53:47;;;;;;;17.50;4.18;;;9.90;83.70;;;;;;4987967;28;20046;-65
2020/12/23 13:56:14;;;;;;;19.33;5.20;;;9.90;83.40;;;;;;4985439;28;20038;-66
2020/12/23 13:58:41;;;;;;;16.80;4.53;;;9.90;83.70;;;;;;4987197;28;20034;-64
2020/12/23 14:01:08;;;;;;;19.63;4.70;;;9.90;83.30;;;;;;4991313;28;20050;-64
2020/12/23 14:03:33;;;;;;;16.80;3.80;;;9.90;83.60;;;;;;4979614;28;20136;-65
2020/12/23 14:06:00;;;;;;;12.95;4.05;;;10.00;83.00;;;;;;4987103;28;20991;-65
2020/12/23 14:08:26;;;;;;;18.10;4.88;;;10.00;83.40;;;;;;4986477;28;20026;-64
2020/12/23 14:10:52;;;;;;;19.05;5.10;;;9.90;83.50;;;;;;4979530;28;20037;-65
2020/12/23 14:13:17;;;;;;;20.00;6.22;;;10.00;83.40;;;;;;4987697;28;20037;-63
2020/12/23 14:15:43;;;;;;;23.23;5.53;;;10.20;83.20;;;;;;4986106;28;20494;-64
2020/12/23 14:18:10;;;;;;;18.17;4.97;;;10.40;81.50;;;;;;4993101;28;20048;-64
2020/12/23 14:20:35;;;;;;;33.83;12.13;;;10.30;81.50;;;;;;4985822;28;20081;-64
2020/12/23 14:23:01;;;;;;;23.80;6.78;;;10.20;82.30;;;;;;4984294;28;20134;-64
2020/12/23 14:25:27;;;;;;;18.38;5.82;;;10.00;83.20;;;;;;4985804;28;20108;-63